sensor_id;sensor_type;location;lat;lon;timestamp;temperature;humidity
6008;DHT22;3032;49.484;11.112;2023-02-28T00:02:17;-1.30;99.90
6008;DHT22;3032;49.484;11.112;2023-02-28T00:04:43;-1.20;99.90
6008;DHT22;3032;49.484;11.112;2023-02-28T00:07:09;-1.30;99.90
6008;DHT22;3032;49.484;11.112;2023-02-28T00:09:35;-0.90;99.90
6008;DHT22;3032;49.484;11.112;2023-02-28T00:12:00;-1.00;99.90
6008;DHT22;3032;49.484;11.112;2023-02-28T00:14:36;-1.00;99.90
6008;DHT22;3032;49.484;11.112;2023-02-28T00:17:02;-0.90;99.90
6008;DHT22;3032;49.484;11.112;2023-02-28T00:19:27;-0.90;99.90
6008;DHT22;3032;49.484;11.112;2023-02-28T00:21:53;-1.00;99.90
6008;DHT22;3032;49.484;11.112;2023-02-28T00:24:18;-1.00;99.90
6008;DHT22;3032;49.484;11.112;2023-02-28T00:26:44;-1.00;99.90
6008;DHT22;3032;49.484;11.112;2023-02-28T00:29:09;-1.00;99.90
6008;DHT22;3032;49.484;11.112;2023-02-28T00:31:35;-0.90;99.90
6008;DHT22;3032;49.484;11.112;2023-02-28T00:34:01;-1.00;99.90
6008;DHT22;3032;49.484;11.112;2023-02-28T00:36:26;-1.00;99.90
6008;DHT22;3032;49.484;11.112;2023-02-28T00:38:52;-1.00;99.90
6008;DHT22;3032;49.484;11.112;2023-02-28T00:41:17;-1.10;99.90
6008;DHT22;3032;49.484;11.112;2023-02-28T00:43:43;-1.00;99.90
6008;DHT22;3032;49.484;11.112;2023-02-28T00:46:09;-1.00;99.90
6008;DHT22;3032;49.484;11.112;2023-02-28T00:48:35;-0.90;99.90
6008;DHT22;3032;49.484;11.112;2023-02-28T00:51:01;-1.10;99.90
6008;DHT22;3032;49.484;11.112;2023-02-28T00:53:27;-1.00;99.90
6008;DHT22;3032;49.484;11.112;2023-02-28T00:55:52;-1.10;99.90
6008;DHT22;3032;49.484;11.112;2023-02-28T00:58:18;-1.10;99.90
6008;DHT22;3032;49.484;11.112;2023-02-28T01:00:44;-1.10;99.90
6008;DHT22;3032;49.484;11.112;2023-02-28T01:03:15;-1.00;99.90
6008;DHT22;3032;49.484;11.112;2023-02-28T01:05:40;-1.00;99.90
6008;DHT22;3032;49.484;11.112;2023-02-28T01:08:06;-1.00;99.90
6008;DHT22;3032;49.484;11.112;2023-02-28T01:10:32;-1.00;99.90
6008;DHT22;3032;49.484;11.112;2023-02-28T01:12:58;-1.10;99.90
6008;DHT22;3032;49.484;11.112;2023-02-28T01:15:23;-1.10;99.90
6008;DHT22;3032;49.484;11.112;2023-02-28T01:17:49;-0.90;99.90
6008;DHT22;3032;49.484;11.112;2023-02-28T01:20:14;-0.90;99.90
6008;DHT22;3032;49.484;11.112;2023-02-28T01:22:40;-1.00;99.90
6008;DHT22;3032;49.484;11.112;2023-02-28T01:25:06;-1.10;99.90
6008;DHT22;3032;49.484;11.112;2023-02-28T01:27:31;-1.00;99.90
6008;DHT22;3032;49.484;11.112;2023-02-28T01:29:58;-1.00;99.90
6008;DHT22;3032;49.484;11.112;2023-02-28T01:32:23;-1.20;99.90
6008;DHT22;3032;49.484;11.112;2023-02-28T01:34:49;-1.20;99.90
6008;DHT22;3032;49.484;11.112;2023-02-28T01:37:15;-1.20;99.90
6008;DHT22;3032;49.484;11.112;2023-02-28T01:39:40;-1.10;99.90
6008;DHT22;3032;49.484;11.112;2023-02-28T01:42:09;-1.20;99.90
6008;DHT22;3032;49.484;11.112;2023-02-28T01:47:47;-1.10;99.90
6008;DHT22;3032;49.484;11.112;2023-02-28T01:50:18;-1.30;99.90
6008;DHT22;3032;49.484;11.112;2023-02-28T01:52:45;-1.30;99.90
6008;DHT22;3032;49.484;11.112;2023-02-28T01:55:13;-1.20;99.90
6008;DHT22;3032;49.484;11.112;2023-02-28T01:57:43;-1.20;99.90
6008;DHT22;3032;49.484;11.112;2023-02-28T02:00:13;-1.10;99.90
6008;DHT22;3032;49.484;11.112;2023-02-28T02:02:42;-1.10;99.90
6008;DHT22;3032;49.484;11.112;2023-02-28T02:05:11;-1.10;99.90
6008;DHT22;3032;49.484;11.112;2023-02-28T02:07:39;-0.90;99.90
6008;DHT22;3032;49.484;11.112;2023-02-28T02:13:08;-1.10;99.90
6008;DHT22;3032;49.484;11.112;2023-02-28T02:35:14;-1.30;99.90
6008;DHT22;3032;49.484;11.112;2023-02-28T02:40:35;-1.50;99.90
6008;DHT22;3032;49.484;11.112;2023-02-28T02:43:11;-1.40;99.90
6008;DHT22;3032;49.484;11.112;2023-02-28T02:45:55;-1.30;99.90
6008;DHT22;3032;49.484;11.112;2023-02-28T02:48:25;-1.50;99.90
6008;DHT22;3032;49.484;11.112;2023-02-28T02:50:55;-1.50;99.90
6008;DHT22;3032;49.484;11.112;2023-02-28T02:53:26;-1.30;99.90
6008;DHT22;3032;49.484;11.112;2023-02-28T02:55:53;-1.30;99.90
6008;DHT22;3032;49.484;11.112;2023-02-28T02:58:24;-1.30;99.90
6008;DHT22;3032;49.484;11.112;2023-02-28T03:00:54;-1.40;99.90
6008;DHT22;3032;49.484;11.112;2023-02-28T03:03:21;-1.30;99.90
6008;DHT22;3032;49.484;11.112;2023-02-28T03:05:58;-1.10;99.90
6008;DHT22;3032;49.484;11.112;2023-02-28T03:08:27;-1.00;99.90
6008;DHT22;3032;49.484;11.112;2023-02-28T03:11:01;-1.30;99.90
6008;DHT22;3032;49.484;11.112;2023-02-28T03:13:53;-1.30;99.90
6008;DHT22;3032;49.484;11.112;2023-02-28T03:19:34;-1.50;99.90
6008;DHT22;3032;49.484;11.112;2023-02-28T03:24:56;-1.60;99.90
6008;DHT22;3032;49.484;11.112;2023-02-28T03:27:41;-1.70;99.90
6008;DHT22;3032;49.484;11.112;2023-02-28T03:30:49;-1.70;99.90
6008;DHT22;3032;49.484;11.112;2023-02-28T03:33:21;-1.60;99.90
6008;DHT22;3032;49.484;11.112;2023-02-28T03:36:02;-1.50;99.90
6008;DHT22;3032;49.484;11.112;2023-02-28T03:38:35;-1.50;99.90
6008;DHT22;3032;49.484;11.112;2023-02-28T03:41:17;-1.50;99.90
6008;DHT22;3032;49.484;11.112;2023-02-28T03:43:50;-1.60;99.90
6008;DHT22;3032;49.484;11.112;2023-02-28T03:46:19;-1.40;99.90
6008;DHT22;3032;49.484;11.112;2023-02-28T03:51:29;-1.40;99.90
6008;DHT22;3032;49.484;11.112;2023-02-28T03:54:01;-1.40;99.90
6008;DHT22;3032;49.484;11.112;2023-02-28T03:56:39;-1.40;99.90
6008;DHT22;3032;49.484;11.112;2023-02-28T03:59:18;-1.30;99.90
6008;DHT22;3032;49.484;11.112;2023-02-28T04:01:46;-1.40;99.90
6008;DHT22;3032;49.484;11.112;2023-02-28T04:04:13;-1.50;99.90
6008;DHT22;3032;49.484;11.112;2023-02-28T04:06:41;-1.40;99.90
6008;DHT22;3032;49.484;11.112;2023-02-28T04:09:09;-1.30;99.90
6008;DHT22;3032;49.484;11.112;2023-02-28T04:11:49;-1.20;99.90
6008;DHT22;3032;49.484;11.112;2023-02-28T04:14:17;-1.30;99.90
6008;DHT22;3032;49.484;11.112;2023-02-28T04:16:43;-1.20;99.90
6008;DHT22;3032;49.484;11.112;2023-02-28T04:19:10;-1.20;99.90
6008;DHT22;3032;49.484;11.112;2023-02-28T04:21:39;-1.40;99.90
6008;DHT22;3032;49.484;11.112;2023-02-28T04:24:05;-1.40;99.90
6008;DHT22;3032;49.484;11.112;2023-02-28T04:26:32;-1.50;99.90
6008;DHT22;3032;49.484;11.112;2023-02-28T04:28:58;-1.60;99.90
6008;DHT22;3032;49.484;11.112;2023-02-28T04:31:24;-1.50;99.90
6008;DHT22;3032;49.484;11.112;2023-02-28T04:33:50;-1.30;99.90
6008;DHT22;3032;49.484;11.112;2023-02-28T04:36:15;-1.20;99.90
6008;DHT22;3032;49.484;11.112;2023-02-28T04:38:44;-1.20;99.90
6008;DHT22;3032;49.484;11.112;2023-02-28T04:41:09;-1.20;99.90
6008;DHT22;3032;49.484;11.112;2023-02-28T04:43:35;-1.20;99.90
6008;DHT22;3032;49.484;11.112;2023-02-28T04:46:03;-1.20;99.90
6008;DHT22;3032;49.484;11.112;2023-02-28T04:48:30;-1.10;99.90
6008;DHT22;3032;49.484;11.112;2023-02-28T04:51:00;-1.10;99.90
6008;DHT22;3032;49.484;11.112;2023-02-28T04:53:28;-1.10;99.90
6008;DHT22;3032;49.484;11.112;2023-02-28T04:55:54;-1.10;99.90
6008;DHT22;3032;49.484;11.112;2023-02-28T04:58:20;-1.00;99.90
6008;DHT22;3032;49.484;11.112;2023-02-28T05:00:48;-1.10;99.90
6008;DHT22;3032;49.484;11.112;2023-02-28T05:03:14;-1.10;99.90
6008;DHT22;3032;49.484;11.112;2023-02-28T05:05:39;-1.10;99.90
6008;DHT22;3032;49.484;11.112;2023-02-28T05:08:05;-1.20;99.90
6008;DHT22;3032;49.484;11.112;2023-02-28T05:10:31;-1.20;99.90
6008;DHT22;3032;49.484;11.112;2023-02-28T05:12:56;-1.30;99.90
6008;DHT22;3032;49.484;11.112;2023-02-28T05:15:22;-1.20;99.90
6008;DHT22;3032;49.484;11.112;2023-02-28T05:17:47;-1.40;99.90
6008;DHT22;3032;49.484;11.112;2023-02-28T05:20:13;-1.50;99.90
6008;DHT22;3032;49.484;11.112;2023-02-28T05:22:39;-1.40;99.90
6008;DHT22;3032;49.484;11.112;2023-02-28T05:25:06;-1.40;99.90
6008;DHT22;3032;49.484;11.112;2023-02-28T05:27:32;-1.10;99.90
6008;DHT22;3032;49.484;11.112;2023-02-28T05:29:57;-1.20;99.90
6008;DHT22;3032;49.484;11.112;2023-02-28T05:32:24;-1.10;99.90
6008;DHT22;3032;49.484;11.112;2023-02-28T05:34:50;-1.10;99.90
6008;DHT22;3032;49.484;11.112;2023-02-28T05:37:15;-1.10;99.90
6008;DHT22;3032;49.484;11.112;2023-02-28T05:39:42;-1.20;99.90
6008;DHT22;3032;49.484;11.112;2023-02-28T05:42:07;-1.20;99.90
6008;DHT22;3032;49.484;11.112;2023-02-28T05:44:35;-1.30;99.90
6008;DHT22;3032;49.484;11.112;2023-02-28T05:47:00;-1.20;99.90
6008;DHT22;3032;49.484;11.112;2023-02-28T05:49:26;-1.10;99.90
6008;DHT22;3032;49.484;11.112;2023-02-28T05:51:51;-1.10;99.90
6008;DHT22;3032;49.484;11.112;2023-02-28T05:54:17;-1.10;99.90
6008;DHT22;3032;49.484;11.112;2023-02-28T05:56:42;-1.20;99.90
6008;DHT22;3032;49.484;11.112;2023-02-28T05:59:14;-1.20;99.90
6008;DHT22;3032;49.484;11.112;2023-02-28T06:01:44;-1.20;99.90
6008;DHT22;3032;49.484;11.112;2023-02-28T06:04:14;-1.30;99.90
6008;DHT22;3032;49.484;11.112;2023-02-28T06:06:43;-1.20;99.90
6008;DHT22;3032;49.484;11.112;2023-02-28T06:09:10;-1.10;99.90
6008;DHT22;3032;49.484;11.112;2023-02-28T06:11:36;-1.20;99.90
6008;DHT22;3032;49.484;11.112;2023-02-28T06:14:02;-1.20;99.90
6008;DHT22;3032;49.484;11.112;2023-02-28T06:16:28;-1.20;99.90
6008;DHT22;3032;49.484;11.112;2023-02-28T06:18:54;-1.30;99.90
6008;DHT22;3032;49.484;11.112;2023-02-28T06:21:22;-1.30;99.90
6008;DHT22;3032;49.484;11.112;2023-02-28T06:23:47;-1.30;99.90
6008;DHT22;3032;49.484;11.112;2023-02-28T06:26:13;-1.30;99.90
6008;DHT22;3032;49.484;11.112;2023-02-28T06:28:39;-1.20;99.90
6008;DHT22;3032;49.484;11.112;2023-02-28T06:31:09;-1.00;99.90
6008;DHT22;3032;49.484;11.112;2023-02-28T06:33:36;-0.20;99.90
6008;DHT22;3032;49.484;11.112;2023-02-28T06:36:03;1.10;99.90
6008;DHT22;3032;49.484;11.112;2023-02-28T06:38:29;1.60;99.90
6008;DHT22;3032;49.484;11.112;2023-02-28T06:40:56;2.10;99.90
6008;DHT22;3032;49.484;11.112;2023-02-28T06:43:22;2.40;99.90
6008;DHT22;3032;49.484;11.112;2023-02-28T06:45:48;3.00;99.90
6008;DHT22;3032;49.484;11.112;2023-02-28T06:48:14;3.70;99.90
6008;DHT22;3032;49.484;11.112;2023-02-28T06:50:39;4.40;99.90
6008;DHT22;3032;49.484;11.112;2023-02-28T06:53:05;4.90;98.90
6008;DHT22;3032;49.484;11.112;2023-02-28T06:55:31;5.00;99.20
6008;DHT22;3032;49.484;11.112;2023-02-28T06:57:57;5.30;96.90
6008;DHT22;3032;49.484;11.112;2023-02-28T07:00:23;6.10;96.00
6008;DHT22;3032;49.484;11.112;2023-02-28T07:02:50;6.20;95.00
6008;DHT22;3032;49.484;11.112;2023-02-28T07:05:15;6.80;93.80
6008;DHT22;3032;49.484;11.112;2023-02-28T07:07:41;6.60;93.80
6008;DHT22;3032;49.484;11.112;2023-02-28T07:10:10;6.60;93.00
6008;DHT22;3032;49.484;11.112;2023-02-28T07:12:37;6.80;92.40
6008;DHT22;3032;49.484;11.112;2023-02-28T07:15:04;6.20;93.90
6008;DHT22;3032;49.484;11.112;2023-02-28T07:17:30;7.10;93.00
6008;DHT22;3032;49.484;11.112;2023-02-28T07:19:55;7.80;91.40
6008;DHT22;3032;49.484;11.112;2023-02-28T07:22:21;7.80;90.40
6008;DHT22;3032;49.484;11.112;2023-02-28T07:24:46;8.00;90.30
6008;DHT22;3032;49.484;11.112;2023-02-28T07:27:12;7.00;90.20
6008;DHT22;3032;49.484;11.112;2023-02-28T07:29:38;6.80;91.00
6008;DHT22;3032;49.484;11.112;2023-02-28T07:32:03;6.00;91.60
6008;DHT22;3032;49.484;11.112;2023-02-28T07:34:29;6.40;92.40
6008;DHT22;3032;49.484;11.112;2023-02-28T07:36:55;6.40;91.70
6008;DHT22;3032;49.484;11.112;2023-02-28T07:39:21;6.60;91.20
6008;DHT22;3032;49.484;11.112;2023-02-28T07:41:47;6.80;91.10
6008;DHT22;3032;49.484;11.112;2023-02-28T07:44:13;7.60;90.30
6008;DHT22;3032;49.484;11.112;2023-02-28T07:46:39;6.00;91.10
6008;DHT22;3032;49.484;11.112;2023-02-28T07:49:05;6.40;92.40
6008;DHT22;3032;49.484;11.112;2023-02-28T07:51:30;7.40;90.60
6008;DHT22;3032;49.484;11.112;2023-02-28T07:53:57;7.20;89.50
6008;DHT22;3032;49.484;11.112;2023-02-28T07:56:23;6.10;90.50
6008;DHT22;3032;49.484;11.112;2023-02-28T07:58:48;5.50;91.70
6008;DHT22;3032;49.484;11.112;2023-02-28T08:01:14;5.90;92.00
6008;DHT22;3032;49.484;11.112;2023-02-28T08:03:40;5.70;92.00
6008;DHT22;3032;49.484;11.112;2023-02-28T08:06:07;6.00;91.90
6008;DHT22;3032;49.484;11.112;2023-02-28T08:08:34;5.40;91.60
6008;DHT22;3032;49.484;11.112;2023-02-28T08:11:03;5.70;93.20
6008;DHT22;3032;49.484;11.112;2023-02-28T08:13:29;6.50;90.80
6008;DHT22;3032;49.484;11.112;2023-02-28T08:15:55;6.00;90.90
6008;DHT22;3032;49.484;11.112;2023-02-28T08:18:22;6.10;90.90
6008;DHT22;3032;49.484;11.112;2023-02-28T08:20:47;5.70;92.10
6008;DHT22;3032;49.484;11.112;2023-02-28T08:23:13;5.80;92.00
6008;DHT22;3032;49.484;11.112;2023-02-28T08:25:39;7.00;91.40
6008;DHT22;3032;49.484;11.112;2023-02-28T08:28:05;6.80;89.40
6008;DHT22;3032;49.484;11.112;2023-02-28T08:30:30;7.10;90.00
6008;DHT22;3032;49.484;11.112;2023-02-28T08:32:56;8.20;88.40
6008;DHT22;3032;49.484;11.112;2023-02-28T08:35:22;7.30;87.10
6008;DHT22;3032;49.484;11.112;2023-02-28T08:37:48;8.80;87.90
6008;DHT22;3032;49.484;11.112;2023-02-28T08:40:14;9.70;81.20
6008;DHT22;3032;49.484;11.112;2023-02-28T08:42:46;8.60;80.50
6008;DHT22;3032;49.484;11.112;2023-02-28T08:45:13;7.80;83.60
6008;DHT22;3032;49.484;11.112;2023-02-28T08:47:39;7.80;84.00
6008;DHT22;3032;49.484;11.112;2023-02-28T08:50:05;7.50;82.90
6008;DHT22;3032;49.484;11.112;2023-02-28T08:52:31;6.80;88.80
6008;DHT22;3032;49.484;11.112;2023-02-28T08:54:56;7.20;84.30
6008;DHT22;3032;49.484;11.112;2023-02-28T08:57:22;7.90;84.00
6008;DHT22;3032;49.484;11.112;2023-02-28T08:59:48;7.20;83.10
6008;DHT22;3032;49.484;11.112;2023-02-28T09:02:14;6.70;83.20
6008;DHT22;3032;49.484;11.112;2023-02-28T09:04:40;6.90;84.20
6008;DHT22;3032;49.484;11.112;2023-02-28T09:07:06;6.20;83.50
6008;DHT22;3032;49.484;11.112;2023-02-28T09:09:31;5.10;87.50
6008;DHT22;3032;49.484;11.112;2023-02-28T09:11:57;5.30;88.70
6008;DHT22;3032;49.484;11.112;2023-02-28T09:14:23;5.60;88.50
6008;DHT22;3032;49.484;11.112;2023-02-28T09:16:48;6.60;87.30
6008;DHT22;3032;49.484;11.112;2023-02-28T09:19:14;8.00;85.00
6008;DHT22;3032;49.484;11.112;2023-02-28T09:21:40;8.80;80.20
6008;DHT22;3032;49.484;11.112;2023-02-28T09:24:06;8.70;77.70
6008;DHT22;3032;49.484;11.112;2023-02-28T09:26:31;7.50;81.10
6008;DHT22;3032;49.484;11.112;2023-02-28T09:28:57;8.30;80.70
6008;DHT22;3032;49.484;11.112;2023-02-28T09:31:26;7.70;80.70
6008;DHT22;3032;49.484;11.112;2023-02-28T09:33:55;7.20;79.30
6008;DHT22;3032;49.484;11.112;2023-02-28T09:36:23;7.40;79.10
6008;DHT22;3032;49.484;11.112;2023-02-28T09:38:49;6.80;79.20
6008;DHT22;3032;49.484;11.112;2023-02-28T09:41:22;6.50;81.10
6008;DHT22;3032;49.484;11.112;2023-02-28T09:44:00;6.40;81.30
6008;DHT22;3032;49.484;11.112;2023-02-28T09:46:40;6.60;80.00
6008;DHT22;3032;49.484;11.112;2023-02-28T09:49:12;6.80;80.20
6008;DHT22;3032;49.484;11.112;2023-02-28T09:54:22;9.50;76.20
6008;DHT22;3032;49.484;11.112;2023-02-28T09:56:51;9.30;76.80
6008;DHT22;3032;49.484;11.112;2023-02-28T10:02:35;8.60;77.20
6008;DHT22;3032;49.484;11.112;2023-02-28T10:05:13;9.70;74.00
6008;DHT22;3032;49.484;11.112;2023-02-28T10:10:41;9.10;73.90
6008;DHT22;3032;49.484;11.112;2023-02-28T10:13:46;9.00;72.70
6008;DHT22;3032;49.484;11.112;2023-02-28T10:16:37;9.50;72.60
6008;DHT22;3032;49.484;11.112;2023-02-28T10:19:14;9.40;72.10
6008;DHT22;3032;49.484;11.112;2023-02-28T10:21:55;10.30;71.20
6008;DHT22;3032;49.484;11.112;2023-02-28T10:24:42;11.30;68.10
6008;DHT22;3032;49.484;11.112;2023-02-28T10:27:23;12.10;69.50
6008;DHT22;3032;49.484;11.112;2023-02-28T10:29:54;12.00;63.30
6008;DHT22;3032;49.484;11.112;2023-02-28T10:32:23;12.80;61.60
6008;DHT22;3032;49.484;11.112;2023-02-28T10:34:57;13.30;59.70
6008;DHT22;3032;49.484;11.112;2023-02-28T10:37:23;12.80;59.40
6008;DHT22;3032;49.484;11.112;2023-02-28T10:39:49;12.20;61.10
6008;DHT22;3032;49.484;11.112;2023-02-28T10:42:28;12.10;62.20
6008;DHT22;3032;49.484;11.112;2023-02-28T10:45:15;13.00;59.80
6008;DHT22;3032;49.484;11.112;2023-02-28T10:47:51;11.90;58.30
6008;DHT22;3032;49.484;11.112;2023-02-28T10:50:33;10.90;60.90
6008;DHT22;3032;49.484;11.112;2023-02-28T10:59:02;8.90;63.20
6008;DHT22;3032;49.484;11.112;2023-02-28T11:01:47;8.90;63.50
6008;DHT22;3032;49.484;11.112;2023-02-28T11:06:46;9.90;64.70
6008;DHT22;3032;49.484;11.112;2023-02-28T11:09:25;10.90;61.20
6008;DHT22;3032;49.484;11.112;2023-02-28T11:11:54;10.90;61.40
6008;DHT22;3032;49.484;11.112;2023-02-28T11:14:29;10.20;64.80
6008;DHT22;3032;49.484;11.112;2023-02-28T11:16:59;10.00;61.60
6008;DHT22;3032;49.484;11.112;2023-02-28T11:19:30;10.40;60.20
6008;DHT22;3032;49.484;11.112;2023-02-28T11:22:01;11.20;62.40
6008;DHT22;3032;49.484;11.112;2023-02-28T11:24:45;11.90;61.70
6008;DHT22;3032;49.484;11.112;2023-02-28T11:29:51;11.10;59.20
6008;DHT22;3032;49.484;11.112;2023-02-28T11:32:20;11.80;59.50
6008;DHT22;3032;49.484;11.112;2023-02-28T11:34:47;13.20;57.70
6008;DHT22;3032;49.484;11.112;2023-02-28T11:37:24;12.40;58.90
6008;DHT22;3032;49.484;11.112;2023-02-28T11:39:51;12.70;57.30
6008;DHT22;3032;49.484;11.112;2023-02-28T11:45:12;11.60;56.80
6008;DHT22;3032;49.484;11.112;2023-02-28T11:47:47;11.30;57.40
6008;DHT22;3032;49.484;11.112;2023-02-28T11:50:26;11.60;61.10
6008;DHT22;3032;49.484;11.112;2023-02-28T11:53:02;11.50;57.90
6008;DHT22;3032;49.484;11.112;2023-02-28T11:55:36;10.10;61.90
6008;DHT22;3032;49.484;11.112;2023-02-28T12:03:48;9.10;62.30
6008;DHT22;3032;49.484;11.112;2023-02-28T12:06:33;9.10;63.20
6008;DHT22;3032;49.484;11.112;2023-02-28T12:09:04;9.00;66.60
6008;DHT22;3032;49.484;11.112;2023-02-28T12:14:25;8.90;62.60
6008;DHT22;3032;49.484;11.112;2023-02-28T12:17:18;8.30;62.90
6008;DHT22;3032;49.484;11.112;2023-02-28T12:27:42;7.30;68.90
6008;DHT22;3032;49.484;11.112;2023-02-28T12:30:31;8.10;67.80
6008;DHT22;3032;49.484;11.112;2023-02-28T12:33:11;8.20;65.50
6008;DHT22;3032;49.484;11.112;2023-02-28T12:35:49;7.80;63.50
6008;DHT22;3032;49.484;11.112;2023-02-28T12:38:21;6.90;66.10
6008;DHT22;3032;49.484;11.112;2023-02-28T12:41:03;6.50;69.90
6008;DHT22;3032;49.484;11.112;2023-02-28T12:43:39;6.40;68.70
6008;DHT22;3032;49.484;11.112;2023-02-28T12:46:14;6.90;69.50
6008;DHT22;3032;49.484;11.112;2023-02-28T12:49:04;7.10;70.10
6008;DHT22;3032;49.484;11.112;2023-02-28T12:51:30;6.80;68.70
6008;DHT22;3032;49.484;11.112;2023-02-28T12:59:37;7.40;68.60
6008;DHT22;3032;49.484;11.112;2023-02-28T13:07:49;7.70;66.80
6008;DHT22;3032;49.484;11.112;2023-02-28T13:10:20;7.70;66.90
6008;DHT22;3032;49.484;11.112;2023-02-28T13:12:52;7.60;68.90
6008;DHT22;3032;49.484;11.112;2023-02-28T13:15:27;8.30;66.50
6008;DHT22;3032;49.484;11.112;2023-02-28T13:17:56;8.90;66.70
6008;DHT22;3032;49.484;11.112;2023-02-28T13:20:35;8.30;65.20
6008;DHT22;3032;49.484;11.112;2023-02-28T13:23:01;8.50;68.70
6008;DHT22;3032;49.484;11.112;2023-02-28T13:28:03;8.00;66.60
6008;DHT22;3032;49.484;11.112;2023-02-28T13:33:34;7.00;69.10
6008;DHT22;3032;49.484;11.112;2023-02-28T13:36:26;6.60;69.20
6008;DHT22;3032;49.484;11.112;2023-02-28T13:38:57;6.80;72.70
6008;DHT22;3032;49.484;11.112;2023-02-28T13:44:22;8.30;67.60
6008;DHT22;3032;49.484;11.112;2023-02-28T13:49:25;7.40;68.90
6008;DHT22;3032;49.484;11.112;2023-02-28T13:52:09;7.20;68.90
6008;DHT22;3032;49.484;11.112;2023-02-28T13:55:01;7.10;68.90
6008;DHT22;3032;49.484;11.112;2023-02-28T14:05:37;7.10;68.40
6008;DHT22;3032;49.484;11.112;2023-02-28T14:08:08;6.80;70.30
6008;DHT22;3032;49.484;11.112;2023-02-28T14:10:49;7.10;71.10
6008;DHT22;3032;49.484;11.112;2023-02-28T14:16:01;7.40;70.70
6008;DHT22;3032;49.484;11.112;2023-02-28T14:18:31;7.60;70.80
6008;DHT22;3032;49.484;11.112;2023-02-28T14:31:38;6.50;71.40
6008;DHT22;3032;49.484;11.112;2023-02-28T14:34:30;6.20;72.60
6008;DHT22;3032;49.484;11.112;2023-02-28T14:37:00;6.50;72.70
6008;DHT22;3032;49.484;11.112;2023-02-28T14:39:27;6.60;72.10
6008;DHT22;3032;49.484;11.112;2023-02-28T14:41:56;6.60;72.20
6008;DHT22;3032;49.484;11.112;2023-02-28T14:44:27;7.30;71.40
6008;DHT22;3032;49.484;11.112;2023-02-28T14:47:00;7.60;70.70
6008;DHT22;3032;49.484;11.112;2023-02-28T14:49:35;6.90;70.30
6008;DHT22;3032;49.484;11.112;2023-02-28T14:52:23;6.90;70.60
6008;DHT22;3032;49.484;11.112;2023-02-28T14:54:54;7.10;71.00
6008;DHT22;3032;49.484;11.112;2023-02-28T14:57:32;6.70;72.10
6008;DHT22;3032;49.484;11.112;2023-02-28T15:02:38;6.60;72.90
6008;DHT22;3032;49.484;11.112;2023-02-28T15:07:38;6.20;73.10
6008;DHT22;3032;49.484;11.112;2023-02-28T15:10:31;5.90;73.70
6008;DHT22;3032;49.484;11.112;2023-02-28T15:12:59;6.40;74.40
6008;DHT22;3032;49.484;11.112;2023-02-28T15:15:40;6.20;75.20
6008;DHT22;3032;49.484;11.112;2023-02-28T15:18:15;6.30;77.00
6008;DHT22;3032;49.484;11.112;2023-02-28T15:20:42;6.40;75.40
6008;DHT22;3032;49.484;11.112;2023-02-28T15:23:10;6.10;73.90
6008;DHT22;3032;49.484;11.112;2023-02-28T15:25:36;5.70;76.10
6008;DHT22;3032;49.484;11.112;2023-02-28T15:28:02;5.40;77.90
6008;DHT22;3032;49.484;11.112;2023-02-28T15:30:29;5.60;78.40
6008;DHT22;3032;49.484;11.112;2023-02-28T15:33:23;5.40;77.20
6008;DHT22;3032;49.484;11.112;2023-02-28T15:35:49;5.10;78.30
6008;DHT22;3032;49.484;11.112;2023-02-28T15:38:22;5.30;80.80
6008;DHT22;3032;49.484;11.112;2023-02-28T15:40:57;5.60;77.90
6008;DHT22;3032;49.484;11.112;2023-02-28T15:43:37;5.50;76.80
6008;DHT22;3032;49.484;11.112;2023-02-28T15:46:14;5.50;79.50
6008;DHT22;3032;49.484;11.112;2023-02-28T15:48:56;5.40;77.70
6008;DHT22;3032;49.484;11.112;2023-02-28T15:51:33;5.40;77.90
6008;DHT22;3032;49.484;11.112;2023-02-28T15:54:02;5.60;78.70
6008;DHT22;3032;49.484;11.112;2023-02-28T15:56:39;6.10;79.70
6008;DHT22;3032;49.484;11.112;2023-02-28T15:59:28;6.00;77.60
6008;DHT22;3032;49.484;11.112;2023-02-28T16:04:36;6.00;76.60
6008;DHT22;3032;49.484;11.112;2023-02-28T16:07:06;6.00;77.30
6008;DHT22;3032;49.484;11.112;2023-02-28T16:09:31;6.00;78.00
6008;DHT22;3032;49.484;11.112;2023-02-28T16:12:00;6.00;77.60
6008;DHT22;3032;49.484;11.112;2023-02-28T16:14:28;5.70;78.40
6008;DHT22;3032;49.484;11.112;2023-02-28T16:17:06;5.80;78.30
6008;DHT22;3032;49.484;11.112;2023-02-28T16:19:34;5.20;80.20
6008;DHT22;3032;49.484;11.112;2023-02-28T16:22:00;4.90;80.50
6008;DHT22;3032;49.484;11.112;2023-02-28T16:24:26;4.70;82.20
6008;DHT22;3032;49.484;11.112;2023-02-28T16:26:53;4.80;81.70
6008;DHT22;3032;49.484;11.112;2023-02-28T16:29:27;4.40;83.00
6008;DHT22;3032;49.484;11.112;2023-02-28T16:31:54;4.10;83.20
6008;DHT22;3032;49.484;11.112;2023-02-28T16:34:20;4.10;84.50
6008;DHT22;3032;49.484;11.112;2023-02-28T16:36:47;4.10;84.70
6008;DHT22;3032;49.484;11.112;2023-02-28T16:39:13;4.20;84.90
6008;DHT22;3032;49.484;11.112;2023-02-28T16:41:42;4.20;84.70
6008;DHT22;3032;49.484;11.112;2023-02-28T16:44:12;4.00;86.20
6008;DHT22;3032;49.484;11.112;2023-02-28T16:46:38;3.70;87.40
6008;DHT22;3032;49.484;11.112;2023-02-28T16:49:04;3.70;88.30
6008;DHT22;3032;49.484;11.112;2023-02-28T16:51:29;3.90;89.80
6008;DHT22;3032;49.484;11.112;2023-02-28T16:53:55;3.90;87.90
6008;DHT22;3032;49.484;11.112;2023-02-28T16:56:23;4.00;87.70
6008;DHT22;3032;49.484;11.112;2023-02-28T16:58:50;3.80;87.80
6008;DHT22;3032;49.484;11.112;2023-02-28T17:01:17;3.70;89.20
6008;DHT22;3032;49.484;11.112;2023-02-28T17:03:47;3.40;90.20
6008;DHT22;3032;49.484;11.112;2023-02-28T17:06:21;3.40;90.70
6008;DHT22;3032;49.484;11.112;2023-02-28T17:08:49;3.50;90.70
6008;DHT22;3032;49.484;11.112;2023-02-28T17:11:15;3.60;91.10
6008;DHT22;3032;49.484;11.112;2023-02-28T17:13:41;3.60;90.60
6008;DHT22;3032;49.484;11.112;2023-02-28T17:16:23;3.40;91.00
6008;DHT22;3032;49.484;11.112;2023-02-28T17:18:50;3.40;91.50
6008;DHT22;3032;49.484;11.112;2023-02-28T17:21:17;3.60;91.20
6008;DHT22;3032;49.484;11.112;2023-02-28T17:23:43;3.40;91.10
6008;DHT22;3032;49.484;11.112;2023-02-28T17:26:16;3.10;91.90
6008;DHT22;3032;49.484;11.112;2023-02-28T17:28:46;3.20;92.40
6008;DHT22;3032;49.484;11.112;2023-02-28T17:31:12;3.20;92.30
6008;DHT22;3032;49.484;11.112;2023-02-28T17:33:37;3.20;92.20
6008;DHT22;3032;49.484;11.112;2023-02-28T17:36:03;3.30;91.90
6008;DHT22;3032;49.484;11.112;2023-02-28T17:38:29;3.10;92.40
6008;DHT22;3032;49.484;11.112;2023-02-28T17:40:55;3.10;93.00
6008;DHT22;3032;49.484;11.112;2023-02-28T17:43:26;3.20;93.10
6008;DHT22;3032;49.484;11.112;2023-02-28T17:45:53;3.20;93.20
6008;DHT22;3032;49.484;11.112;2023-02-28T17:48:19;3.40;92.80
6008;DHT22;3032;49.484;11.112;2023-02-28T17:50:44;3.80;92.20
6008;DHT22;3032;49.484;11.112;2023-02-28T17:53:10;3.90;91.40
6008;DHT22;3032;49.484;11.112;2023-02-28T17:55:36;4.10;91.60
6008;DHT22;3032;49.484;11.112;2023-02-28T17:58:02;4.00;91.10
6008;DHT22;3032;49.484;11.112;2023-02-28T18:00:28;4.20;91.10
6008;DHT22;3032;49.484;11.112;2023-02-28T18:02:54;4.20;91.00
6008;DHT22;3032;49.484;11.112;2023-02-28T18:05:20;4.40;90.60
6008;DHT22;3032;49.484;11.112;2023-02-28T18:07:45;4.40;90.60
6008;DHT22;3032;49.484;11.112;2023-02-28T18:10:21;4.40;90.60
6008;DHT22;3032;49.484;11.112;2023-02-28T18:12:48;4.40;90.40
6008;DHT22;3032;49.484;11.112;2023-02-28T18:15:15;4.30;90.50
6008;DHT22;3032;49.484;11.112;2023-02-28T18:17:41;4.20;91.10
6008;DHT22;3032;49.484;11.112;2023-02-28T18:20:07;4.10;90.80